createdAt,value
2024-04-15T00:08:30.776Z,99519.09
2024-04-15T00:18:02.672Z,99495.53
2024-04-15T00:27:35.032Z,99480.55
2024-04-15T00:37:10.558Z,99450.34
2024-04-15T00:46:43.152Z,99422.28
2024-04-15T00:56:18.909Z,99421.63
2024-04-15T01:05:51.189Z,99425.98
2024-04-15T01:15:27.975Z,99406.63
2024-04-15T01:24:59.554Z,99386.30
2024-04-15T01:34:39.483Z,99364.80
2024-04-15T01:44:10.059Z,99353.56
2024-04-15T01:53:42.408Z,99346.38
2024-04-15T02:03:16.686Z,99345.26
2024-04-15T02:13:01.030Z,99335.95
2024-04-15T02:51:18.254Z,99335.13
2024-04-15T03:20:03.748Z,99313.70
2024-04-15T03:29:41.611Z,99311.89
2024-04-15T03:39:14.366Z,99299.91
2024-04-15T03:48:45.977Z,99299.81
2024-04-15T03:58:21.777Z,99295.63
2024-04-15T04:07:58.548Z,99299.45
2024-04-15T04:17:33.229Z,99307.99
2024-04-15T04:27:03.732Z,99307.58
2024-04-15T04:36:37.218Z,99306.84
2024-04-15T04:46:11.732Z,99305.14
2024-04-15T04:55:43.019Z,99300.42
2024-04-15T05:05:16.909Z,99294.84
2024-04-15T05:14:50.682Z,99298.14
2024-04-15T05:24:25.035Z,99298.77
2024-04-15T05:34:01.220Z,99292.80
2024-04-15T05:43:34.338Z,99276.63
2024-04-15T05:53:08.416Z,99291.64
2024-04-15T05:54:12.372Z,99288.80
2024-04-15T05:55:15.032Z,99286.14
2024-04-15T06:04:48.337Z,99288.27
2024-04-15T06:14:22.392Z,99290.31
2024-04-15T06:23:56.919Z,99281.97
2024-04-15T06:33:30.952Z,99266.12
2024-04-15T06:43:07.037Z,99262.75
2024-04-15T06:52:38.894Z,99246.45
2024-04-15T07:02:13.099Z,99231.86
2024-04-15T07:11:46.841Z,99215.46
2024-04-15T07:12:49.452Z,99213.55
2024-04-15T07:13:51.898Z,99207.09
2024-04-15T07:23:25.339Z,99185.48
2024-04-15T07:32:59.718Z,99165.67
2024-04-15T07:34:02.228Z,99165.23
2024-04-15T07:35:06.258Z,99157.97
2024-04-15T07:36:08.550Z,99150.59
2024-04-15T07:37:11.071Z,99152.95
2024-04-15T07:38:13.435Z,99145.71
2024-04-15T07:39:15.868Z,99151.78
2024-04-15T07:40:19.961Z,99139.56
2024-04-15T07:41:22.250Z,99145.61
2024-04-15T07:42:28.415Z,99138.21
2024-04-15T07:43:27.181Z,99132.79
2024-04-15T07:44:29.598Z,99125.83
2024-04-15T07:45:33.641Z,99126.73
2024-04-15T07:55:04.908Z,99124.27
2024-04-15T07:56:07.331Z,99121.97
2024-04-15T07:57:09.833Z,99127.94
2024-04-15T07:58:12.308Z,99128.73
2024-04-15T07:59:16.308Z,99132.43
2024-04-15T08:00:18.689Z,99136.43
2024-04-15T08:01:22.830Z,99140.77
2024-04-15T08:02:27.690Z,99139.64
2024-04-15T08:03:29.951Z,99144.69
2024-04-15T08:04:34.139Z,99139.68
2024-04-15T08:05:36.495Z,99135.81
2024-04-15T08:06:40.539Z,99136.73
2024-04-15T08:07:42.838Z,99130.56
2024-04-15T08:08:45.259Z,99134.89
2024-04-15T08:09:47.706Z,99129.86
2024-04-15T08:10:50.251Z,99134.98
2024-04-15T08:11:54.312Z,99134.86
2024-04-15T08:12:59.281Z,99127.39
2024-04-15T08:14:01.411Z,99132.41
2024-04-15T08:15:05.478Z,99137.47
2024-04-15T08:16:07.852Z,99138.78
2024-04-15T08:17:11.346Z,99138.61
2024-04-15T08:18:13.629Z,99144.17
2024-04-15T08:19:17.635Z,99141.52
2024-04-15T08:20:21.486Z,99138.46
2024-04-15T08:21:23.767Z,99146.41
2024-04-15T08:22:28.863Z,99145.25
2024-04-15T08:23:33.652Z,99142.13
2024-04-15T08:24:35.897Z,99145.20
2024-04-15T08:25:38.335Z,99145.30
2024-04-15T08:26:40.742Z,99140.33
2024-04-15T08:27:43.227Z,99140.19
2024-04-15T08:28:45.588Z,99141.38
2024-04-15T08:29:48.183Z,99139.63
2024-04-15T08:30:50.471Z,99137.74
2024-04-15T08:31:55.360Z,99127.20
2024-04-15T08:32:55.418Z,99132.86
2024-04-15T08:33:59.418Z,99129.39
2024-04-15T08:35:03.266Z,99129.27
2024-04-15T08:36:05.547Z,99125.75
2024-04-15T08:37:08.000Z,99119.70
2024-04-15T08:38:10.416Z,99117.23
2024-04-15T08:39:12.899Z,99118.30
2024-04-15T08:40:17.340Z,99111.22
2024-04-15T08:41:19.444Z,99102.17
2024-04-15T08:42:23.936Z,99101.62
2024-04-15T08:43:27.380Z,99097.55
2024-04-15T08:44:29.606Z,99093.63
2024-04-15T08:54:05.126Z,99083.00
2024-04-15T08:55:07.317Z,99084.92
2024-04-15T08:56:09.768Z,99086.45
2024-04-15T08:57:12.649Z,99079.86
2024-04-15T08:58:15.055Z,99077.44
2024-04-15T08:59:19.071Z,99072.83
2024-04-15T09:00:21.392Z,99081.27
2024-04-15T09:01:23.901Z,99077.21
2024-04-15T09:02:26.261Z,99082.05
2024-04-15T09:03:28.723Z,99077.06
2024-04-15T09:04:32.727Z,99070.69
2024-04-15T09:05:36.592Z,99073.11
2024-04-15T09:06:38.925Z,99059.88
2024-04-15T09:07:42.951Z,99065.83
2024-04-15T09:08:45.279Z,99064.23
2024-04-15T09:09:47.774Z,99052.66
2024-04-15T09:10:50.152Z,99056.39
2024-04-15T09:11:54.903Z,99044.88
2024-04-15T09:12:55.106Z,99048.88
2024-04-15T09:13:57.515Z,99045.42
2024-04-15T09:15:00.139Z,99042.83
2024-04-15T09:16:02.385Z,99043.11
2024-04-15T09:17:06.512Z,99041.80
2024-04-15T09:18:10.533Z,99046.67
2024-04-15T09:19:14.477Z,99041.52
2024-04-15T09:20:20.727Z,99038.56
2024-04-15T09:21:22.348Z,99027.42
2024-04-15T09:22:24.791Z,99022.32
2024-04-15T09:23:27.198Z,99028.02
2024-04-15T09:24:29.643Z,99020.64
2024-04-15T09:25:32.125Z,99016.25
2024-04-15T09:26:37.900Z,99034.13
2024-04-15T09:27:38.479Z,99026.77
2024-04-15T09:28:40.962Z,99026.14
2024-04-15T09:29:43.437Z,99027.86
2024-04-15T09:30:45.846Z,99012.42
2024-04-15T09:31:48.368Z,99019.70
2024-04-15T09:32:52.194Z,99006.14
2024-04-15T09:42:22.329Z,98985.63
2024-04-15T09:43:24.945Z,98995.97
2024-04-15T09:44:27.217Z,98982.22
2024-04-15T09:45:29.701Z,98985.02
2024-04-15T09:46:32.176Z,98983.20
2024-04-15T09:47:34.684Z,98978.41
2024-04-15T09:48:37.101Z,98974.23
2024-04-15T09:49:39.537Z,98991.56
2024-04-15T09:50:42.932Z,98974.77
2024-04-15T09:51:44.418Z,98970.95
2024-04-15T09:52:46.865Z,98957.47
2024-04-15T09:53:49.271Z,98963.63
2024-04-15T09:54:53.343Z,98972.50
2024-04-15T09:55:57.228Z,98952.98
2024-04-15T09:56:59.555Z,98953.38
2024-04-15T09:58:03.603Z,98957.31
2024-04-15T09:59:05.893Z,98958.23
2024-04-15T10:00:08.370Z,98949.82
2024-04-15T10:01:13.448Z,98950.34
2024-04-15T10:02:17.347Z,98946.39
2024-04-15T10:03:19.670Z,98949.16
2024-04-15T10:04:24.777Z,98946.92
2024-04-15T10:05:26.987Z,98943.93
2024-04-15T10:06:29.391Z,98942.23
2024-04-15T10:07:32.023Z,98936.23
2024-04-15T10:08:34.492Z,98926.87
2024-04-15T10:09:36.946Z,98927.16
2024-04-15T10:10:39.334Z,98926.58
2024-04-15T10:11:41.789Z,98922.70
2024-04-15T10:12:44.222Z,98924.16
2024-04-15T10:13:46.688Z,98916.13
2024-04-15T10:14:49.195Z,98914.45
2024-04-15T10:15:53.299Z,98911.56
2024-04-15T10:16:55.647Z,98896.99
2024-04-15T10:17:58.147Z,98915.67
2024-04-15T10:19:00.554Z,98923.83
2024-04-15T10:20:03.063Z,98911.80
2024-04-15T10:21:05.524Z,98910.88
2024-04-15T10:22:08.044Z,98906.56
2024-04-15T10:23:10.489Z,98907.48
2024-04-15T10:24:14.392Z,98910.90
2024-04-15T10:25:16.802Z,98909.31
2024-04-15T10:26:20.768Z,98900.66
2024-04-15T10:27:23.090Z,98905.42
2024-04-15T10:28:25.554Z,98898.25
2024-04-15T10:29:29.588Z,98899.20
2024-04-15T10:30:33.645Z,98897.27
2024-04-15T10:31:35.884Z,98891.14
2024-04-15T10:32:38.430Z,98886.33
2024-04-15T10:33:42.349Z,98877.42
2024-04-15T10:34:44.723Z,98876.63
2024-04-15T10:35:47.154Z,98879.48
2024-04-15T10:36:51.235Z,98882.23
2024-04-15T10:37:55.130Z,98887.98
2024-04-15T10:38:57.387Z,98875.03
2024-04-15T10:39:59.832Z,98874.58
2024-04-15T10:41:02.286Z,98881.06
2024-04-15T10:42:06.406Z,98861.92
2024-04-15T10:43:08.813Z,98873.52
2024-04-15T10:44:11.230Z,98863.53
2024-04-15T10:45:13.611Z,98867.02
2024-04-15T10:46:16.053Z,98875.55
2024-04-15T10:47:20.105Z,98862.73
2024-04-15T10:48:22.542Z,98866.48
2024-04-15T10:49:26.637Z,98862.39
2024-04-15T10:50:30.456Z,98867.48
2024-04-15T10:51:32.844Z,98867.66
2024-04-15T10:52:35.278Z,98858.06
2024-04-15T10:53:39.322Z,98856.74
2024-04-15T10:54:41.663Z,98854.06
2024-04-15T10:55:45.724Z,98854.52
2024-04-15T10:56:48.135Z,98844.45
2024-04-15T10:57:50.648Z,98840.76
2024-04-15T10:58:53.017Z,98846.69
2024-04-15T10:59:55.467Z,98837.89
2024-04-15T11:00:59.598Z,98837.61
2024-04-15T11:02:01.849Z,98836.87
2024-04-15T11:03:05.997Z,98841.80
2024-04-15T11:04:08.331Z,98827.98
2024-04-15T11:05:12.318Z,98823.65
2024-04-15T11:06:18.013Z,98827.92
2024-04-15T11:07:20.299Z,98822.45
2024-04-15T11:08:22.577Z,98825.61
2024-04-15T11:09:25.013Z,98816.68
2024-04-15T11:10:29.092Z,98830.37
2024-04-15T11:11:31.392Z,98817.33
2024-04-15T11:12:33.769Z,98817.87
2024-04-15T11:13:36.235Z,98821.59
2024-04-15T11:14:40.264Z,98814.95
2024-04-15T11:15:44.198Z,98813.29
2024-04-15T11:16:46.718Z,98823.67
2024-04-15T11:17:49.097Z,98804.45
2024-04-15T11:18:51.507Z,98794.20
2024-04-15T11:19:53.929Z,98785.42
2024-04-15T11:20:56.404Z,98806.67
2024-04-15T11:21:59.131Z,98780.13
2024-04-15T11:23:03.045Z,98782.89
2024-04-15T11:24:06.866Z,98787.59
2024-04-15T11:25:10.817Z,98771.38
2024-04-15T11:34:40.914Z,98758.22
2024-04-15T11:35:43.415Z,98745.73
2024-04-15T11:36:47.560Z,98744.27
2024-04-15T11:37:49.864Z,98747.94
2024-04-15T11:38:52.370Z,98752.67
2024-04-15T11:39:54.990Z,98757.85
2024-04-15T11:40:57.588Z,98738.48
2024-04-15T11:42:00.064Z,98737.77
2024-04-15T11:43:02.526Z,98738.07
2024-04-15T11:44:04.968Z,98732.11
2024-04-15T11:45:07.387Z,98734.11
2024-04-15T11:46:11.523Z,98733.70
2024-04-15T11:47:13.840Z,98725.03
2024-04-15T11:48:17.874Z,98724.27
2024-04-15T11:49:21.797Z,98740.32
2024-04-15T11:50:24.089Z,98707.67
2024-04-15T11:51:26.616Z,98715.08
2024-04-15T11:52:29.046Z,98697.33
2024-04-15T11:53:31.482Z,98712.94
2024-04-15T11:54:33.960Z,98725.42
2024-04-15T11:55:36.442Z,98711.27
2024-04-15T11:56:38.931Z,98724.29
2024-04-15T11:57:42.950Z,98714.44
2024-04-15T11:58:45.296Z,98713.70
2024-04-15T11:59:49.404Z,98707.34
2024-04-15T12:00:53.601Z,98714.77
2024-04-15T12:01:55.726Z,98712.96
2024-04-15T12:02:58.150Z,98717.95
2024-04-15T12:04:00.740Z,98690.60
2024-04-15T12:05:04.160Z,98692.38
2024-04-15T12:06:06.564Z,98691.70
2024-04-15T12:07:09.013Z,98687.16
2024-04-15T12:08:13.060Z,98705.84
2024-04-15T12:09:16.961Z,98687.84
2024-04-15T12:10:19.289Z,98686.56
2024-04-15T12:11:21.718Z,98688.98
2024-04-15T12:12:24.158Z,98683.70
2024-04-15T12:13:26.830Z,98688.30
2024-04-15T12:14:30.992Z,98679.73
2024-04-15T12:15:33.293Z,98680.92
2024-04-15T12:16:35.875Z,98672.63
2024-04-15T12:17:40.072Z,98687.43
2024-04-15T12:18:42.282Z,98663.94
2024-04-15T12:19:44.664Z,98666.56
2024-04-15T12:20:47.167Z,98658.39
2024-04-15T12:21:49.610Z,98658.81
2024-04-15T12:22:52.094Z,98644.92
2024-04-15T12:23:54.592Z,98645.58
2024-04-15T12:25:01.634Z,98646.26
2024-04-15T12:25:59.498Z,98635.50
2024-04-15T12:27:01.985Z,98647.30
2024-04-15T12:28:04.572Z,98640.27
2024-04-15T12:29:06.968Z,98638.82
2024-04-15T12:30:09.389Z,98635.49
2024-04-15T12:31:11.877Z,98633.40
2024-04-15T12:32:16.240Z,98638.84
2024-04-15T12:33:18.564Z,98639.55
2024-04-15T12:34:21.042Z,98635.73
2024-04-15T12:35:25.085Z,98632.12
2024-04-15T12:36:29.009Z,98621.64
2024-04-15T12:37:31.373Z,98621.58
2024-04-15T12:38:35.305Z,98628.22
2024-04-15T12:39:37.575Z,98625.23
2024-04-15T12:40:40.064Z,98603.38
2024-04-15T12:41:42.499Z,98615.13
2024-04-15T12:42:46.581Z,98615.83
2024-04-15T12:43:48.888Z,98601.45
2024-04-15T12:44:52.875Z,98609.23
2024-04-15T12:45:55.253Z,98616.71
2024-04-15T12:46:59.397Z,98602.34
2024-04-15T12:48:01.710Z,98600.17
2024-04-15T12:49:04.110Z,98596.88
2024-04-15T12:50:08.183Z,98591.28
2024-04-15T12:51:10.514Z,98586.27
2024-04-15T12:52:14.621Z,98585.42
2024-04-15T12:53:16.901Z,98573.81
2024-04-15T12:54:19.301Z,98573.31
2024-04-15T12:55:23.522Z,98575.78
2024-04-15T12:56:25.805Z,98568.16
2024-04-15T12:57:29.781Z,98565.61
2024-04-15T12:58:32.182Z,98572.98
2024-04-15T12:59:34.575Z,98567.45
2024-04-15T13:00:37.053Z,98564.83
2024-04-15T13:01:47.048Z,98561.92
2024-04-15T13:02:43.616Z,98560.67
2024-04-15T13:03:45.844Z,98570.27
2024-04-15T13:04:50.048Z,98554.89
2024-04-15T13:05:53.885Z,98550.38
2024-04-15T13:06:56.319Z,98545.25
2024-04-15T13:08:00.345Z,98545.61
2024-04-15T13:09:02.672Z,98545.03
2024-04-15T13:10:06.708Z,98554.27
2024-04-15T13:11:08.995Z,98543.77
2024-04-15T13:12:11.462Z,98533.98
2024-04-15T13:13:15.559Z,98531.88
2024-04-15T13:14:17.848Z,98529.38
2024-04-15T13:15:20.303Z,98521.23
2024-04-15T13:16:23.856Z,98520.31
2024-04-15T13:17:26.125Z,98527.74
2024-04-15T13:18:28.726Z,98532.16
2024-04-15T13:19:31.180Z,98543.11
2024-04-15T13:20:35.254Z,98536.15
2024-04-15T13:21:37.575Z,98515.30
2024-04-15T13:22:41.663Z,98523.13
2024-04-15T13:23:43.868Z,98508.09
2024-04-15T13:24:47.986Z,98510.56
2024-04-15T13:25:51.936Z,98505.96
2024-04-15T13:26:54.233Z,98507.31
2024-04-15T13:27:56.756Z,98499.61
2024-04-15T13:28:59.194Z,98503.34
2024-04-15T13:30:03.344Z,98498.00
2024-04-15T13:31:05.740Z,98482.56
2024-04-15T13:32:14.845Z,98501.97
2024-04-15T13:33:12.072Z,98485.45
2024-04-15T13:34:14.526Z,98484.27
2024-04-15T13:35:16.929Z,98473.81
2024-04-15T13:36:19.825Z,98520.55
2024-04-15T13:37:23.829Z,98484.95
2024-04-15T13:38:26.144Z,98480.86
2024-04-15T13:39:28.501Z,98464.78
2024-04-15T13:40:31.050Z,98468.71
2024-04-15T13:41:35.106Z,98474.81
2024-04-15T13:42:38.983Z,98470.01
2024-04-15T13:43:41.416Z,98458.38
2024-04-15T13:44:45.478Z,98485.44
2024-04-15T13:45:47.879Z,98477.24
2024-04-15T13:46:50.460Z,98479.82
2024-04-15T13:47:54.404Z,98477.20
2024-04-15T13:48:57.841Z,98464.83
2024-04-15T13:50:00.300Z,98459.85
2024-04-15T13:51:03.649Z,98472.24
2024-04-15T13:52:06.125Z,98462.78
2024-04-15T13:53:09.634Z,98463.71
2024-04-15T13:54:12.039Z,98452.94
2024-04-15T13:55:16.108Z,98470.96
2024-04-15T13:56:18.388Z,98452.33
2024-04-15T13:57:20.871Z,98468.45
2024-04-15T13:58:23.465Z,98466.81
2024-04-15T13:59:25.778Z,98469.05
2024-04-15T14:00:28.465Z,98462.48
2024-04-15T14:01:30.866Z,98449.39
2024-04-15T14:02:33.320Z,98454.55
2024-04-15T14:03:35.868Z,98447.90
2024-04-15T14:04:38.239Z,98452.32
2024-04-15T14:05:40.621Z,98440.07
2024-04-15T14:06:43.054Z,98448.91
2024-04-15T14:07:46.627Z,98453.77
2024-04-15T14:08:50.589Z,98450.66
2024-04-15T14:09:53.916Z,98442.97
2024-04-15T14:10:58.445Z,98448.81
2024-04-15T14:12:00.961Z,98450.00
2024-04-15T14:13:03.008Z,98442.23
2024-04-15T14:14:05.374Z,98445.30
2024-04-15T14:15:09.381Z,98454.25
2024-04-15T14:16:13.724Z,98495.92
2024-04-15T14:17:17.787Z,98453.13
2024-04-15T14:18:19.849Z,98454.34
2024-04-15T14:19:22.794Z,98446.38
2024-04-15T14:20:24.672Z,98443.59
2024-04-15T14:21:27.192Z,98447.90
2024-04-15T14:22:32.396Z,98450.86
2024-04-15T14:23:37.429Z,98447.28
2024-04-15T14:24:39.678Z,98435.47
2024-04-15T14:25:42.395Z,98435.16
2024-04-15T14:26:44.517Z,98429.42
2024-04-15T14:27:47.003Z,98419.45
2024-04-15T14:28:49.436Z,98448.80
2024-04-15T14:29:51.843Z,98426.92
2024-04-15T14:30:55.962Z,98428.39
2024-04-15T14:31:59.847Z,98439.22
2024-04-15T14:33:04.838Z,98425.97
2024-04-15T14:34:09.654Z,98425.17
2024-04-15T14:35:13.538Z,98422.48
2024-04-15T14:36:17.855Z,98417.80
2024-04-15T14:37:20.811Z,98411.97
2024-04-15T14:38:24.731Z,98432.14
2024-04-15T14:39:27.025Z,98410.66
2024-04-15T14:40:32.267Z,98410.94
2024-04-15T14:41:34.227Z,98416.19
2024-04-15T14:42:36.743Z,98409.83
2024-04-15T14:43:39.094Z,98399.57
2024-04-15T14:44:41.539Z,98406.27
2024-04-15T14:45:43.945Z,98402.55
2024-04-15T14:46:46.459Z,98416.50
2024-04-15T14:47:48.985Z,98397.66
2024-04-15T14:48:52.970Z,98410.54
2024-04-15T14:49:56.796Z,98431.79
2024-04-15T14:50:59.019Z,98396.28
2024-04-15T14:52:01.509Z,98406.28
2024-04-15T14:53:05.466Z,98404.27
2024-04-15T14:54:09.457Z,98397.70
2024-04-15T14:55:13.361Z,98391.95
2024-04-15T14:56:17.283Z,98405.03
2024-04-15T14:57:19.554Z,98392.79
2024-04-15T14:58:21.959Z,98386.48
2024-04-15T14:59:24.605Z,98403.11
2024-04-15T15:00:28.557Z,98378.31
2024-04-15T15:01:32.347Z,98391.33
2024-04-15T15:02:34.555Z,98383.13
2024-04-15T15:03:37.052Z,98391.19
2024-04-15T15:04:41.088Z,98379.94
2024-04-15T15:05:45.030Z,98372.66
2024-04-15T15:06:49.991Z,98372.58
2024-04-15T15:07:52.223Z,98362.81
2024-04-15T15:08:56.199Z,98361.54
2024-04-15T15:10:00.182Z,98360.83
2024-04-15T15:11:03.322Z,98364.38
2024-04-15T15:12:07.465Z,98361.39
2024-04-15T15:13:09.743Z,98373.01
2024-04-15T15:14:13.692Z,98352.77
2024-04-15T15:15:17.686Z,98364.27
2024-04-15T15:16:20.069Z,98365.00
2024-04-15T15:17:22.484Z,98363.62
2024-04-15T15:18:24.961Z,98375.98
2024-04-15T15:19:27.366Z,98347.69
2024-04-15T15:20:29.818Z,98353.02
2024-04-15T15:21:32.374Z,98351.93
2024-04-15T15:22:34.723Z,98351.70
2024-04-15T15:23:37.044Z,98349.30
2024-04-15T15:24:39.499Z,98346.18
2024-04-15T15:25:44.007Z,98331.64
2024-04-15T15:26:44.406Z,98342.29
2024-04-15T15:27:49.050Z,98334.22
2024-04-15T15:28:49.217Z,98340.38
2024-04-15T15:29:53.242Z,98338.07
2024-04-15T15:30:57.185Z,98342.45
2024-04-15T15:31:59.625Z,98342.31
2024-04-15T15:33:02.091Z,98354.19
2024-04-15T15:34:06.238Z,98364.26
2024-04-15T15:35:10.036Z,98330.39
2024-04-15T15:36:13.496Z,98347.38
2024-04-15T15:37:15.806Z,98337.90
2024-04-15T15:38:19.824Z,98363.79
2024-04-15T15:39:24.582Z,98331.48
2024-04-15T15:40:26.217Z,98339.20
2024-04-15T15:41:30.170Z,98323.73
2024-04-15T15:42:32.346Z,98323.56
2024-04-15T15:43:34.909Z,98327.66
2024-04-15T15:44:37.311Z,98333.84
2024-04-15T15:45:41.301Z,98304.73
2024-04-15T15:46:43.675Z,98318.04
2024-04-15T15:47:46.373Z,98309.31
2024-04-15T15:48:48.854Z,98309.60
2024-04-15T15:49:52.855Z,98312.55
2024-04-15T15:50:59.079Z,98314.15
2024-04-15T15:52:00.344Z,98302.45
2024-04-15T15:53:02.477Z,98299.70
2024-04-15T15:54:04.952Z,98307.86
2024-04-15T15:55:07.376Z,98301.76
2024-04-15T15:56:13.651Z,98310.77
2024-04-15T15:57:15.268Z,98306.92
2024-04-15T15:58:19.209Z,98290.50
2024-04-15T15:59:22.993Z,98286.44
2024-04-15T16:00:25.255Z,98284.87
2024-04-15T16:01:30.334Z,98297.80
2024-04-15T16:02:33.819Z,98293.28
2024-04-15T16:03:33.698Z,98293.92
2024-04-15T16:04:36.330Z,98304.94
2024-04-15T16:05:38.406Z,98282.69
2024-04-15T16:06:40.892Z,98285.94
2024-04-15T16:07:43.406Z,98297.98
2024-04-15T16:08:45.831Z,98283.11
2024-04-15T16:09:49.774Z,98303.11
2024-04-15T16:10:52.046Z,98283.77
2024-04-15T16:11:56.177Z,98295.59
2024-04-15T16:12:59.378Z,98307.28
2024-04-15T16:14:03.362Z,98310.52
2024-04-15T16:15:05.696Z,98275.35
2024-04-15T16:16:10.666Z,98292.34
2024-04-15T16:17:12.923Z,98300.75
2024-04-15T16:18:15.415Z,98303.33
2024-04-15T16:19:19.436Z,98306.69
2024-04-15T16:20:20.269Z,98303.08
2024-04-15T16:21:24.286Z,98290.53
2024-04-15T16:22:28.225Z,98290.36
2024-04-15T16:23:31.476Z,98306.38
2024-04-15T16:24:35.380Z,98319.13
2024-04-15T16:25:39.271Z,98308.22
2024-04-15T16:26:41.543Z,98334.87
2024-04-15T16:27:45.584Z,98324.33
2024-04-15T16:28:47.929Z,98364.55
2024-04-15T16:29:50.318Z,98340.94
2024-04-15T16:30:54.354Z,98346.59
2024-04-15T16:31:56.639Z,98327.00
2024-04-15T16:32:59.070Z,98328.15
2024-04-15T16:34:03.263Z,98332.91
2024-04-15T16:35:05.316Z,98330.18
2024-04-15T16:36:09.307Z,98326.75
2024-04-15T16:37:11.654Z,98321.92
2024-04-15T16:38:15.022Z,98312.50
2024-04-15T16:39:17.322Z,98326.92
2024-04-15T16:40:21.434Z,98333.35
2024-04-15T16:41:25.170Z,98326.11
2024-04-15T16:42:29.062Z,98327.11
2024-04-15T16:43:32.950Z,98314.97
2024-04-15T16:44:35.301Z,98335.27
2024-04-15T16:45:37.567Z,98320.94
2024-04-15T16:46:40.021Z,98315.22
2024-04-15T16:47:44.335Z,98315.52
2024-04-15T16:48:47.886Z,98315.15
2024-04-15T16:49:50.216Z,98323.63
2024-04-15T16:50:52.553Z,98342.73
2024-04-15T16:51:55.019Z,98353.06
2024-04-15T16:52:57.401Z,98341.59
2024-04-15T16:53:59.859Z,98364.56
2024-04-15T16:55:02.290Z,98360.13
2024-04-15T16:56:04.589Z,98387.02
2024-04-15T17:05:33.492Z,98499.23
2024-04-15T17:06:35.821Z,98490.39
2024-04-15T17:07:38.160Z,98502.13
2024-04-15T17:08:40.587Z,98482.21
2024-04-15T17:09:42.891Z,98502.30
2024-04-15T17:10:45.268Z,98486.00
2024-04-15T17:11:49.208Z,98498.39
2024-04-15T17:12:51.461Z,98497.04
2024-04-15T17:13:55.467Z,98503.88
2024-04-15T17:14:59.352Z,98505.91
2024-04-15T17:16:01.740Z,98514.96
2024-04-15T17:17:07.464Z,98521.73
2024-04-15T17:18:07.897Z,98531.99
2024-04-15T17:19:11.854Z,98520.34
2024-04-15T17:20:16.209Z,98530.69
2024-04-15T17:21:16.448Z,98525.77
2024-04-15T17:22:18.974Z,98530.62
2024-04-15T17:23:21.270Z,98531.63
2024-04-15T17:24:23.602Z,98539.54
2024-04-15T17:25:27.646Z,98533.75
2024-04-15T17:26:29.864Z,98545.48
2024-04-15T17:27:32.232Z,98544.78
2024-04-15T17:28:36.261Z,98538.60
2024-04-15T17:29:40.123Z,98553.13
2024-04-15T17:30:43.999Z,98557.91
2024-04-15T17:31:46.240Z,98574.81
2024-04-15T17:32:48.761Z,98573.95
2024-04-15T17:33:51.125Z,98577.84
2024-04-15T17:34:55.103Z,98564.20
2024-04-15T17:35:57.359Z,98589.49
2024-04-15T17:36:59.768Z,98594.03
2024-04-15T17:38:02.144Z,98591.94
2024-04-15T17:39:04.486Z,98594.48
2024-04-15T17:40:06.912Z,98614.98
2024-04-15T17:41:09.255Z,98617.30
2024-04-15T17:42:11.725Z,98610.38
2024-04-15T17:43:13.920Z,98605.44
2024-04-15T17:44:17.881Z,98597.73
2024-04-15T17:45:20.177Z,98596.98
2024-04-15T17:46:22.628Z,98606.31
2024-04-15T17:47:26.584Z,98611.73
2024-04-15T17:48:28.905Z,98630.53
2024-04-15T17:49:32.910Z,98636.70
2024-04-15T17:59:02.073Z,98658.16
2024-04-15T18:08:34.930Z,98672.00
2024-04-15T18:09:38.312Z,98681.33
2024-04-15T18:19:06.633Z,98641.23
2024-04-15T18:28:39.113Z,98714.27
2024-04-15T18:38:12.988Z,98682.45
2024-04-15T18:47:43.442Z,98692.88
2024-04-15T18:57:18.598Z,98738.41
2024-04-15T19:06:50.302Z,98700.33
2024-04-15T19:16:23.518Z,98716.98
2024-04-15T19:25:55.910Z,98768.70
2024-04-15T19:35:29.804Z,98728.17
2024-04-15T19:45:06.160Z,98731.92
2024-04-15T19:54:37.733Z,98740.69
2024-04-15T20:04:10.343Z,98743.41
2024-04-15T20:13:41.948Z,98753.91
2024-04-15T20:23:14.836Z,98757.84
2024-04-15T20:32:48.487Z,98773.91
2024-04-15T20:42:21.179Z,98781.27
2024-04-15T20:51:55.344Z,98789.28
2024-04-15T21:01:28.547Z,98774.27
2024-04-15T21:11:03.759Z,98788.60
2024-04-15T21:20:35.398Z,98775.74
2024-04-15T21:30:10.554Z,98752.17
2024-04-15T21:39:42.687Z,98750.38
2024-04-15T21:49:17.141Z,98752.19
2024-04-15T21:58:51.286Z,98747.84
2024-04-15T22:08:26.767Z,98739.64
2024-04-15T22:17:58.555Z,98731.94
2024-04-15T22:27:32.119Z,98739.95
2024-04-15T22:37:05.718Z,98728.86
2024-04-15T22:46:38.864Z,98727.27
2024-04-15T22:56:12.206Z,98724.56
2024-04-15T23:05:47.264Z,98719.98
2024-04-15T23:15:18.720Z,98720.34
2024-04-15T23:24:54.328Z,98711.80
2024-04-15T23:34:26.845Z,98705.61
2024-04-15T23:44:00.456Z,98694.61
2024-04-15T23:53:34.415Z,98681.70
